createdAt,value
2019-01-26T00:02:16.017Z,-7.40
2019-01-26T00:04:47.842Z,-7.30
2019-01-26T00:07:18.789Z,-7.30
2019-01-26T00:09:52.657Z,-7.40
2019-01-26T00:12:23.291Z,-7.00
2019-01-26T00:14:53.894Z,-7.30
2019-01-26T00:17:29.855Z,-7.20
2019-01-26T00:20:00.415Z,-7.30
2019-01-26T00:22:31.066Z,-7.20
2019-01-26T00:25:01.537Z,-7.20
2019-01-26T00:27:32.102Z,-7.30
2019-01-26T00:30:03.125Z,-7.40
2019-01-26T00:32:35.876Z,-7.50
2019-01-26T00:35:07.545Z,-7.50
2019-01-26T00:37:38.840Z,-7.50
2019-01-26T00:40:12.842Z,-7.50
2019-01-26T00:42:43.510Z,-7.40
2019-01-26T00:45:16.396Z,-7.50
2019-01-26T00:47:47.355Z,-7.50
2019-01-26T00:50:18.800Z,-7.60
2019-01-26T00:52:50.565Z,-7.70
2019-01-26T00:55:24.432Z,-7.60
2019-01-26T00:57:55.114Z,-7.70
2019-01-26T01:00:25.822Z,-7.60
2019-01-26T01:02:56.554Z,-7.60
2019-01-26T01:05:36.838Z,-7.70
2019-01-26T01:08:07.609Z,-7.70
2019-01-26T01:10:38.696Z,-7.80
2019-01-26T01:13:09.370Z,-8.00
2019-01-26T01:15:42.340Z,-7.90
2019-01-26T01:18:12.874Z,-8.00
2019-01-26T01:20:44.195Z,-8.00
2019-01-26T01:23:16.918Z,-8.00
2019-01-26T01:25:47.268Z,-8.00
2019-01-26T01:28:18.212Z,-7.80
2019-01-26T01:30:49.134Z,-8.00
2019-01-26T01:33:20.058Z,-8.00
2019-01-26T01:35:52.183Z,-8.00
2019-01-26T01:38:23.623Z,-7.80
2019-01-26T01:40:54.571Z,-8.00
2019-01-26T01:43:25.203Z,-8.00
2019-01-26T01:45:59.276Z,-7.80
2019-01-26T01:48:29.857Z,-8.10
2019-01-26T01:51:01.667Z,-8.10
2019-01-26T01:53:32.281Z,-8.10
2019-01-26T01:56:05.067Z,-8.10
2019-01-26T01:58:35.721Z,-8.20
2019-01-26T02:01:06.484Z,-7.80
2019-01-26T02:03:39.063Z,-8.00
2019-01-26T02:06:09.445Z,-7.90
2019-01-26T02:08:40.639Z,-7.90
2019-01-26T02:11:11.321Z,-7.80
2019-01-26T02:13:45.187Z,-7.80
2019-01-26T02:16:15.817Z,-7.80
2019-01-26T02:18:46.434Z,-7.80
2019-01-26T02:21:17.761Z,-7.80
2019-01-26T02:23:48.361Z,-7.80
2019-01-26T02:26:22.017Z,-7.70
2019-01-26T02:28:55.020Z,-7.70
2019-01-26T02:31:26.815Z,-7.40
2019-01-26T02:34:00.209Z,-7.60
2019-01-26T02:36:30.932Z,-7.30
2019-01-26T02:39:02.740Z,-7.60
2019-01-26T02:41:33.751Z,-7.60
2019-01-26T02:44:04.574Z,-7.60
2019-01-26T02:46:38.751Z,-7.50
2019-01-26T02:49:09.724Z,-7.60
2019-01-26T02:51:40.398Z,-7.50
2019-01-26T02:54:11.041Z,-7.50
2019-01-26T02:56:42.074Z,-7.60
2019-01-26T02:59:13.125Z,-7.50
2019-01-26T03:01:44.074Z,-7.30
2019-01-26T03:04:14.707Z,-7.40
2019-01-26T03:06:45.395Z,-7.30
2019-01-26T03:09:16.461Z,-7.30
2019-01-26T03:11:47.529Z,-7.30
2019-01-26T03:14:18.236Z,-7.00
2019-01-26T03:16:48.880Z,-7.20
2019-01-26T03:19:19.539Z,-7.20
2019-01-26T03:21:50.836Z,-7.20
2019-01-26T03:24:21.482Z,-7.10
2019-01-26T03:26:52.106Z,-7.10
2019-01-26T03:29:25.040Z,-7.10
2019-01-26T03:31:55.353Z,-7.10
2019-01-26T03:34:26.049Z,-7.00
2019-01-26T03:36:57.611Z,-7.00
2019-01-26T03:39:29.066Z,-7.00
2019-01-26T03:41:59.822Z,-7.00
2019-01-26T03:44:30.414Z,-7.00
2019-01-26T03:47:02.739Z,-7.00
2019-01-26T03:49:36.619Z,-7.10
2019-01-26T03:52:07.323Z,-6.90
2019-01-26T03:54:38.015Z,-6.90
2019-01-26T03:57:08.724Z,-6.90
2019-01-26T03:59:39.439Z,-6.90
2019-01-26T04:02:10.140Z,-6.80
2019-01-26T04:04:41.675Z,-6.80
2019-01-26T04:07:12.714Z,-6.70
2019-01-26T04:09:43.331Z,-6.70
2019-01-26T04:12:14.003Z,-6.70
2019-01-26T04:14:45.024Z,-6.70
2019-01-26T04:17:22.003Z,-6.70
2019-01-26T04:19:52.149Z,-6.60
2019-01-26T04:22:23.112Z,-6.60
2019-01-26T04:24:54.035Z,-6.60
2019-01-26T04:27:24.988Z,-6.60
2019-01-26T04:29:55.908Z,-6.60
2019-01-26T04:32:28.363Z,-6.60
2019-01-26T04:35:01.766Z,-6.70
2019-01-26T04:37:32.830Z,-6.40
2019-01-26T04:40:05.561Z,-6.60
2019-01-26T04:42:39.454Z,-6.70
2019-01-26T04:45:14.448Z,-6.60
2019-01-26T04:47:45.937Z,-6.70
2019-01-26T04:50:19.450Z,-6.70
2019-01-26T04:52:53.335Z,-6.70
2019-01-26T04:55:23.978Z,-6.80
2019-01-26T04:57:54.767Z,-6.70
2019-01-26T05:00:28.940Z,-6.70
2019-01-26T05:02:59.586Z,-6.80
2019-01-26T05:05:36.606Z,-6.70
2019-01-26T05:08:07.293Z,-6.70
2019-01-26T05:10:38.631Z,-6.80
2019-01-26T05:13:09.305Z,-6.50
2019-01-26T05:15:40.243Z,-6.80
2019-01-26T05:18:10.925Z,-6.80
2019-01-26T05:20:41.584Z,-6.80
2019-01-26T05:23:12.283Z,-6.80
2019-01-26T05:25:42.934Z,-6.90
2019-01-26T05:28:13.548Z,-6.90
2019-01-26T05:30:44.207Z,-7.10
2019-01-26T05:33:14.834Z,-7.00
2019-01-26T05:35:48.209Z,-7.00
2019-01-26T05:38:19.236Z,-7.10
2019-01-26T05:40:51.649Z,-7.40
2019-01-26T05:43:22.589Z,-7.20
2019-01-26T05:45:53.244Z,-7.20
2019-01-26T05:48:25.098Z,-7.30
2019-01-26T05:50:56.066Z,-7.20
2019-01-26T05:53:26.752Z,-7.30
2019-01-26T05:55:57.436Z,-7.30
2019-01-26T05:58:28.093Z,-7.30
2019-01-26T06:01:00.310Z,-7.30
2019-01-26T06:03:35.552Z,-7.40
2019-01-26T06:06:06.225Z,-7.50
2019-01-26T06:08:36.903Z,-7.50
2019-01-26T06:11:07.614Z,-7.50
2019-01-26T06:13:38.347Z,-7.50
2019-01-26T06:16:08.948Z,-7.50
2019-01-26T06:18:39.824Z,-7.40
2019-01-26T06:21:15.219Z,-7.50
2019-01-26T06:23:49.567Z,-7.40
2019-01-26T06:26:20.225Z,-7.40
2019-01-26T06:28:53.812Z,-7.30
2019-01-26T06:31:24.830Z,-7.20
2019-01-26T06:33:55.553Z,-7.20
2019-01-26T06:36:35.004Z,-7.20
2019-01-26T06:39:08.169Z,-7.20
2019-01-26T06:41:39.566Z,-7.10
2019-01-26T06:44:13.357Z,-7.20
2019-01-26T06:46:45.197Z,-6.90
2019-01-26T06:49:15.925Z,-7.10
2019-01-26T06:51:48.187Z,-7.00
2019-01-26T06:54:21.424Z,-7.10
2019-01-26T06:56:51.473Z,-7.00
2019-01-26T06:59:22.131Z,-7.00
2019-01-26T07:01:52.819Z,-7.00
2019-01-26T07:04:25.454Z,-6.90
2019-01-26T07:07:09.351Z,-6.90
2019-01-26T07:09:42.992Z,-6.80
2019-01-26T07:12:13.604Z,-6.80
2019-01-26T07:14:47.521Z,-6.60
2019-01-26T07:17:18.125Z,-6.50
2019-01-26T07:19:51.202Z,-6.40
2019-01-26T07:22:21.863Z,-6.20
2019-01-26T07:24:52.816Z,-6.10
2019-01-26T07:27:25.179Z,-6.00
2019-01-26T07:29:55.857Z,-5.80
2019-01-26T07:32:30.530Z,-5.70
2019-01-26T07:35:02.098Z,-5.60
2019-01-26T07:37:41.211Z,-5.50
2019-01-26T07:40:21.200Z,-5.40
2019-01-26T07:42:57.215Z,-5.30
2019-01-26T07:45:31.526Z,-5.10
2019-01-26T07:48:06.462Z,-5.10
2019-01-26T07:50:37.487Z,-5.20
2019-01-26T07:53:13.642Z,-5.20
2019-01-26T07:55:45.401Z,-5.20
2019-01-26T07:58:17.376Z,-5.20
2019-01-26T08:00:49.448Z,-5.30
2019-01-26T08:03:24.406Z,-5.30
2019-01-26T08:05:57.018Z,-5.30
2019-01-26T08:08:27.692Z,-5.40
2019-01-26T08:11:00.806Z,-5.40
2019-01-26T08:13:31.549Z,-5.40
2019-01-26T08:16:04.221Z,-5.40
2019-01-26T08:18:34.653Z,-5.40
2019-01-26T08:21:08.368Z,-5.40
2019-01-26T08:23:38.116Z,-5.30
2019-01-26T08:26:11.690Z,-5.30
2019-01-26T08:28:42.314Z,-5.30
2019-01-26T08:31:13.052Z,-5.20
2019-01-26T08:33:43.669Z,-5.20
2019-01-26T08:36:14.620Z,-5.10
2019-01-26T08:38:45.997Z,-5.00
2019-01-26T08:41:16.679Z,-4.90
2019-01-26T08:43:48.086Z,-4.90
2019-01-26T08:46:18.728Z,-4.90
2019-01-26T08:48:49.582Z,-4.70
2019-01-26T08:51:20.381Z,-4.70
2019-01-26T08:53:51.083Z,-4.70
2019-01-26T08:56:22.004Z,-4.60
2019-01-26T08:58:52.675Z,-4.50
2019-01-26T09:01:25.086Z,-4.40
2019-01-26T09:04:00.262Z,-4.40
2019-01-26T09:06:31.695Z,-4.40
2019-01-26T09:09:02.344Z,-4.30
2019-01-26T09:11:33.833Z,-4.20
2019-01-26T09:14:04.589Z,-4.10
2019-01-26T09:16:37.825Z,-4.10
2019-01-26T09:19:10.275Z,-4.10
2019-01-26T09:21:41.024Z,-4.10
2019-01-26T09:24:11.971Z,-4.10
2019-01-26T09:26:42.589Z,-4.00
2019-01-26T09:29:13.282Z,-4.00
2019-01-26T09:31:48.266Z,-4.00
2019-01-26T09:34:18.965Z,-4.00
2019-01-26T09:36:49.943Z,-3.90
2019-01-26T09:39:21.125Z,-3.80
2019-01-26T09:41:51.896Z,-3.80
2019-01-26T09:44:25.155Z,-3.70
2019-01-26T09:46:56.091Z,-3.60
2019-01-26T09:49:27.129Z,-3.50
2019-01-26T09:51:59.552Z,-3.50
2019-01-26T09:54:30.172Z,-3.50
2019-01-26T09:57:01.133Z,-3.50
2019-01-26T09:59:31.752Z,-3.40
2019-01-26T10:02:02.395Z,-3.40
2019-01-26T10:04:33.022Z,-3.30
2019-01-26T10:07:03.758Z,-3.40
2019-01-26T10:09:34.409Z,-3.20
2019-01-26T10:12:05.734Z,-3.20
2019-01-26T10:14:36.361Z,-3.10
2019-01-26T10:17:07.103Z,-3.00
2019-01-26T10:19:37.735Z,-2.90
2019-01-26T10:22:08.739Z,-2.80
2019-01-26T10:24:42.440Z,-2.70
2019-01-26T10:27:13.122Z,-2.70
2019-01-26T10:29:43.776Z,-2.70
2019-01-26T10:32:16.053Z,-2.70
2019-01-26T10:34:46.659Z,-2.70
2019-01-26T10:37:19.612Z,-2.70
2019-01-26T10:39:50.401Z,-2.70
2019-01-26T10:42:22.339Z,-2.70
2019-01-26T10:44:54.463Z,-2.70
2019-01-26T10:47:25.114Z,-2.70
2019-01-26T10:49:55.702Z,-2.70
2019-01-26T10:52:26.416Z,-2.60
2019-01-26T10:54:56.998Z,-2.60
2019-01-26T10:57:31.712Z,-2.50
2019-01-26T11:00:04.385Z,-2.50
2019-01-26T11:02:35.064Z,-2.50
2019-01-26T11:05:07.744Z,-2.60
2019-01-26T11:07:38.454Z,-2.60
2019-01-26T11:10:13.266Z,-2.50
2019-01-26T11:12:44.021Z,-2.60
2019-01-26T11:15:18.342Z,-2.50
2019-01-26T11:17:49.050Z,-2.60
2019-01-26T11:20:21.848Z,-2.50
2019-01-26T11:22:57.728Z,-2.40
2019-01-26T11:25:28.736Z,-2.40
2019-01-26T11:28:02.366Z,-2.30
2019-01-26T11:30:34.714Z,-2.20
2019-01-26T11:33:05.475Z,-2.10
2019-01-26T11:35:36.375Z,-2.00
2019-01-26T11:38:07.019Z,-1.90
2019-01-26T11:40:40.678Z,-1.90
2019-01-26T11:43:11.332Z,-1.80
2019-01-26T11:45:47.181Z,-1.80
2019-01-26T11:48:25.437Z,-1.70
2019-01-26T11:51:00.596Z,-1.70
2019-01-26T11:53:31.214Z,-1.60
2019-01-26T11:56:06.227Z,-1.70
2019-01-26T11:58:37.326Z,-1.80
2019-01-26T12:01:18.292Z,-1.70
2019-01-26T12:03:56.593Z,-1.80
2019-01-26T12:06:28.858Z,-1.80
2019-01-26T12:08:59.541Z,-1.80
2019-01-26T12:11:30.219Z,-1.90
2019-01-26T12:14:00.916Z,-2.00
2019-01-26T12:16:37.182Z,-2.00
2019-01-26T12:19:10.538Z,-2.00
2019-01-26T12:21:41.555Z,-2.00
2019-01-26T12:24:12.596Z,-1.90
2019-01-26T12:26:43.524Z,-1.90
2019-01-26T12:29:14.264Z,-1.90
2019-01-26T12:31:48.275Z,-1.80
2019-01-26T12:34:19.282Z,-1.80
2019-01-26T12:36:50.281Z,-1.80
2019-01-26T12:39:21.334Z,-1.80
2019-01-26T12:41:55.182Z,-1.80
2019-01-26T12:44:25.860Z,-1.80
2019-01-26T12:46:57.426Z,-1.70
2019-01-26T12:49:29.689Z,-1.70
2019-01-26T12:52:00.361Z,-1.60
2019-01-26T12:54:31.972Z,-1.60
2019-01-26T12:57:05.760Z,-1.60
2019-01-26T12:59:36.333Z,-1.60
2019-01-26T13:02:07.785Z,-1.60
2019-01-26T13:04:38.463Z,-1.50
2019-01-26T13:07:09.055Z,-1.50
2019-01-26T13:09:39.787Z,-1.40
2019-01-26T13:12:10.714Z,-1.40
2019-01-26T13:14:41.785Z,-1.30
2019-01-26T13:17:12.496Z,-1.40
2019-01-26T13:19:43.408Z,-1.40
2019-01-26T13:22:17.165Z,-1.50
2019-01-26T13:24:48.040Z,-1.50
2019-01-26T13:27:18.695Z,-1.50
2019-01-26T13:29:52.385Z,-1.50
2019-01-26T13:32:23.079Z,-1.50
2019-01-26T13:34:55.006Z,-1.40
2019-01-26T13:37:25.632Z,-1.50
2019-01-26T13:39:56.602Z,-1.60
2019-01-26T13:42:27.323Z,-1.60
2019-01-26T13:45:00.190Z,-1.60
2019-01-26T13:47:37.814Z,-1.60
2019-01-26T13:50:05.977Z,-1.60
2019-01-26T13:52:39.778Z,-1.60
2019-01-26T13:55:15.325Z,-1.60
2019-01-26T13:57:46.077Z,-1.60
2019-01-26T14:00:23.871Z,-1.70
2019-01-26T14:02:54.490Z,-1.70
2019-01-26T14:05:25.079Z,-1.70
2019-01-26T14:07:55.724Z,-1.70
2019-01-26T14:10:27.068Z,-1.70
2019-01-26T14:12:57.675Z,-1.80
2019-01-26T14:15:28.233Z,-1.80
2019-01-26T14:18:02.997Z,-1.90
2019-01-26T14:20:33.538Z,-1.90
2019-01-26T14:23:04.541Z,-1.90
2019-01-26T14:25:35.188Z,-1.90
2019-01-26T14:28:06.069Z,-1.80
2019-01-26T14:30:47.490Z,-1.80
2019-01-26T14:33:19.349Z,-1.80
2019-01-26T14:35:52.204Z,-1.80
2019-01-26T14:38:23.187Z,-1.80
2019-01-26T14:40:56.922Z,-1.80
2019-01-26T14:43:28.977Z,-1.80
2019-01-26T14:46:01.079Z,-1.90
2019-01-26T14:48:32.359Z,-1.90
2019-01-26T14:51:03.048Z,-1.80
2019-01-26T14:53:39.042Z,-1.80
2019-01-26T14:56:09.622Z,-1.80
2019-01-26T14:58:40.266Z,-1.90
2019-01-26T15:01:11.679Z,-2.00
2019-01-26T15:03:45.796Z,-2.00
2019-01-26T15:06:16.465Z,-2.00
2019-01-26T15:08:47.059Z,-2.00
2019-01-26T15:11:20.641Z,-2.00
2019-01-26T15:13:51.293Z,-2.10
2019-01-26T15:16:21.975Z,-2.10
2019-01-26T15:18:52.632Z,-2.10
2019-01-26T15:21:24.134Z,-2.20
2019-01-26T15:23:54.628Z,-2.10
2019-01-26T15:26:25.292Z,-2.10
2019-01-26T15:28:55.834Z,-2.20
2019-01-26T15:31:26.386Z,-2.20
2019-01-26T15:33:57.740Z,-2.20
2019-01-26T15:36:28.607Z,-2.20
2019-01-26T15:39:01.385Z,-2.20
2019-01-26T15:41:31.979Z,-2.10
2019-01-26T15:44:02.500Z,-2.20
2019-01-26T15:46:33.053Z,-2.10
2019-01-26T15:49:06.058Z,-2.10
2019-01-26T15:51:37.563Z,-2.20
2019-01-26T15:54:08.862Z,-2.30
2019-01-26T15:56:40.518Z,-2.20
2019-01-26T15:59:12.604Z,-2.20
2019-01-26T16:01:44.803Z,-2.30
2019-01-26T16:04:18.266Z,-2.30
2019-01-26T16:06:52.048Z,-2.40
2019-01-26T16:09:22.746Z,-2.40
2019-01-26T16:11:53.693Z,-2.30
2019-01-26T16:14:24.270Z,-2.30
2019-01-26T16:16:56.952Z,-2.40
2019-01-26T16:19:30.467Z,-2.40
2019-01-26T16:22:00.901Z,-2.40
2019-01-26T16:24:35.137Z,-2.40
2019-01-26T16:27:06.023Z,-2.40
2019-01-26T16:29:37.416Z,-2.40
2019-01-26T16:32:09.692Z,-2.40
2019-01-26T16:34:40.693Z,-2.40
2019-01-26T16:37:12.098Z,-2.40
2019-01-26T16:39:42.838Z,-2.40
2019-01-26T16:42:13.922Z,-2.30
2019-01-26T16:44:44.924Z,-2.30
2019-01-26T16:47:16.555Z,-2.30
2019-01-26T16:49:48.005Z,-2.30
2019-01-26T16:52:18.578Z,-2.30
2019-01-26T16:54:49.157Z,-2.30
2019-01-26T16:57:20.155Z,-2.30
2019-01-26T16:59:53.937Z,-2.30
2019-01-26T17:02:24.476Z,-2.30
2019-01-26T17:04:55.629Z,-2.30
2019-01-26T17:07:26.195Z,-2.30
2019-01-26T17:09:56.837Z,-2.30
2019-01-26T17:12:30.566Z,-2.30
2019-01-26T17:15:02.485Z,-2.30
2019-01-26T17:17:33.172Z,-2.30
2019-01-26T17:20:10.019Z,-2.30
2019-01-26T17:22:46.589Z,-2.20
2019-01-26T17:25:18.084Z,-2.40
2019-01-26T17:27:48.800Z,-2.40
2019-01-26T17:30:26.361Z,-2.40
2019-01-26T17:32:57.020Z,-2.40
2019-01-26T17:35:27.559Z,-2.40
2019-01-26T17:37:58.224Z,-2.40
2019-01-26T17:40:28.839Z,-2.40
2019-01-26T17:42:59.500Z,-2.40
2019-01-26T17:45:31.317Z,-2.40
2019-01-26T17:48:02.074Z,-2.30
2019-01-26T17:50:33.369Z,-2.30
2019-01-26T17:53:04.062Z,-2.40
2019-01-26T17:55:34.617Z,-2.40
2019-01-26T17:58:05.936Z,-2.40
2019-01-26T18:00:38.610Z,-2.40
2019-01-26T18:03:09.713Z,-2.30
2019-01-26T18:05:42.127Z,-2.30
2019-01-26T18:08:13.301Z,-2.30
2019-01-26T18:10:45.768Z,-2.30
2019-01-26T18:13:16.478Z,-2.40
2019-01-26T18:15:46.988Z,-2.40
2019-01-26T18:18:18.219Z,-2.40
2019-01-26T18:20:49.519Z,-2.40
2019-01-26T18:23:21.899Z,-2.40
2019-01-26T18:25:52.680Z,-2.40
2019-01-26T18:28:24.244Z,-2.40
2019-01-26T18:30:56.506Z,-2.40
2019-01-26T18:33:27.070Z,-2.40
2019-01-26T18:35:57.844Z,-2.40
2019-01-26T18:38:28.707Z,-2.40
2019-01-26T18:40:59.318Z,-2.40
2019-01-26T18:43:29.993Z,-2.40
2019-01-26T18:46:00.621Z,-2.30
2019-01-26T18:48:31.384Z,-2.30
2019-01-26T18:51:02.739Z,-2.30
2019-01-26T18:53:34.140Z,-2.30
2019-01-26T18:56:04.752Z,-2.40
2019-01-26T18:58:39.761Z,-2.40
2019-01-26T19:01:10.735Z,-2.40
2019-01-26T19:03:51.341Z,-2.40
2019-01-26T19:06:21.906Z,-2.40
2019-01-26T19:08:53.472Z,-2.40
2019-01-26T19:11:24.296Z,-2.40
2019-01-26T19:13:54.921Z,-2.40
2019-01-26T19:16:25.950Z,-2.40
2019-01-26T19:18:58.254Z,-2.40
2019-01-26T19:21:28.852Z,-2.40
2019-01-26T19:24:00.527Z,-2.40
2019-01-26T19:26:32.243Z,-2.40
2019-01-26T19:29:02.838Z,-2.40
2019-01-26T19:31:33.807Z,-2.40
2019-01-26T19:34:04.822Z,-2.40
2019-01-26T19:36:35.404Z,-2.40
2019-01-26T19:39:10.951Z,-2.40
2019-01-26T19:41:41.741Z,-2.30
2019-01-26T19:44:15.320Z,-2.40
2019-01-26T19:46:45.938Z,-2.30
2019-01-26T19:49:16.654Z,-2.40
2019-01-26T19:51:48.500Z,-2.30
2019-01-26T19:54:19.527Z,-2.20
2019-01-26T19:56:50.198Z,-2.30
2019-01-26T19:59:21.240Z,-2.30
2019-01-26T20:01:52.179Z,-2.40
2019-01-26T20:04:22.795Z,-2.30
2019-01-26T20:06:54.041Z,-2.30
2019-01-26T20:09:24.616Z,-2.30
2019-01-26T20:11:55.230Z,-2.30
2019-01-26T20:14:28.694Z,-2.30
2019-01-26T20:16:58.928Z,-2.30
2019-01-26T20:19:29.856Z,-2.30
2019-01-26T20:22:00.494Z,-2.40
2019-01-26T20:24:31.703Z,-2.40
2019-01-26T20:27:02.623Z,-2.30
2019-01-26T20:29:37.015Z,-2.30
2019-01-26T20:32:07.744Z,-2.30
2019-01-26T20:34:38.651Z,-2.40
2019-01-26T20:37:09.311Z,-2.40
2019-01-26T20:39:39.920Z,-2.40
2019-01-26T20:42:10.702Z,-2.40
2019-01-26T20:44:44.399Z,-2.40
2019-01-26T20:47:15.339Z,-2.40
2019-01-26T20:49:47.563Z,-2.50
2019-01-26T20:52:19.325Z,-2.50
2019-01-26T20:54:50.299Z,-2.50
2019-01-26T20:57:23.263Z,-2.50
2019-01-26T20:59:54.311Z,-2.50
2019-01-26T21:02:25.605Z,-2.50
2019-01-26T21:04:56.122Z,-2.50
2019-01-26T21:07:26.756Z,-2.50
2019-01-26T21:10:02.037Z,-2.50
2019-01-26T21:12:35.520Z,-2.50
2019-01-26T21:15:09.262Z,-2.50
2019-01-26T21:17:42.617Z,-2.50
2019-01-26T21:20:16.656Z,-2.60
2019-01-26T21:22:47.274Z,-2.70
2019-01-26T21:25:18.629Z,-2.70
2019-01-26T21:27:54.940Z,-2.60
2019-01-26T21:30:28.043Z,-2.60
2019-01-26T21:32:58.599Z,-2.60
2019-01-26T21:35:29.985Z,-2.60
2019-01-26T21:38:00.832Z,-2.60
2019-01-26T21:40:32.054Z,-2.50
2019-01-26T21:43:03.111Z,-2.50
2019-01-26T21:45:34.093Z,-2.60
2019-01-26T21:48:05.046Z,-2.50
2019-01-26T21:50:35.728Z,-2.60
2019-01-26T21:53:07.947Z,-2.50
2019-01-26T21:55:39.655Z,-2.50
2019-01-26T21:58:10.266Z,-2.50
2019-01-26T22:00:40.791Z,-2.50
2019-01-26T22:03:11.377Z,-2.50
2019-01-26T22:05:42.396Z,-2.50
2019-01-26T22:08:18.695Z,-2.50
2019-01-26T22:10:49.370Z,-2.50
2019-01-26T22:13:20.351Z,-2.50
2019-01-26T22:15:51.062Z,-2.60
2019-01-26T22:18:21.982Z,-2.50
2019-01-26T22:20:52.995Z,-2.50
2019-01-26T22:23:23.667Z,-2.50
2019-01-26T22:25:55.659Z,-2.50
2019-01-26T22:28:26.299Z,-2.50
2019-01-26T22:30:57.306Z,-2.50
2019-01-26T22:33:27.906Z,-2.50
2019-01-26T22:35:58.513Z,-2.50
2019-01-26T22:38:32.574Z,-2.50
2019-01-26T22:41:03.153Z,-2.50
2019-01-26T22:43:34.298Z,-2.50
2019-01-26T22:46:05.384Z,-2.50
2019-01-26T22:48:36.271Z,-2.50
2019-01-26T22:51:07.186Z,-2.50
2019-01-26T22:53:38.069Z,-2.50
2019-01-26T22:56:08.787Z,-2.40
2019-01-26T22:58:39.479Z,-2.40
2019-01-26T23:01:14.005Z,-2.40
2019-01-26T23:04:06.497Z,-2.40
2019-01-26T23:06:58.532Z,-2.50
2019-01-26T23:09:39.272Z,-2.40
2019-01-26T23:12:29.280Z,-2.40
2019-01-26T23:15:33.420Z,-2.40
2019-01-26T23:18:11.226Z,-2.40
2019-01-26T23:20:46.382Z,-2.40
2019-01-26T23:23:36.310Z,-2.40
2019-01-26T23:26:14.120Z,-2.40
2019-01-26T23:28:55.259Z,-2.40
2019-01-26T23:31:25.906Z,-2.40
2019-01-26T23:33:56.662Z,-2.40
2019-01-26T23:36:27.378Z,-2.40
2019-01-26T23:39:02.208Z,-2.30
2019-01-26T23:41:30.379Z,-2.30
2019-01-26T23:44:01.026Z,-2.30
2019-01-26T23:46:31.602Z,-2.30
2019-01-26T23:49:02.099Z,-2.30
2019-01-26T23:51:32.940Z,-2.30
2019-01-26T23:54:06.626Z,-2.30
2019-01-26T23:56:39.195Z,-2.30
2019-01-26T23:59:11.626Z,-2.30
